West Akron, Ohio
Current Conditions -  °F | °C
As of 7:54 PM on Sunday 23 Nov 2014 (Local Time) from KAKR Reporting Station
Light Rain Light Rain  
Wind Chill: 15°   Ceiling: 10000
Heat Index: 15°   Visibility: 10mi
Dew Point:   Wind: 7mph
Humidity: 60%   Direction: 150°SSE
Pressure: 29.61"   Gusts: NA
Location:  41.0707°N, 81.5458°W
Report Text: KAKR 240054Z AUTO 15006KT 10SM -RA OVC100 15/07 A2961 RMK AO2 RAB45 SLP026 P0000 T01500072
Loading
Personal Weather Stations






























Interactive Weather Map New forecast layout! Learn more

10-Day Weather Forecast

Advertisements
Track Severe Weather on mobile